map of KRS home
KRS - Airport
Location
City:  Kristiansand, Vest-Agder, Norway
Name:Kjevik
ICAO:ENCN
IATA:KRS

Details
Type:Airport (Aerodrome, Airfield)
Use:Public/Civil
Latitude:5812'15"N (58.204214)
Longitude:805'07"E (8.085369)
Datum:WGS 1984
Elevation:57 ft (17 m)
Variation:2.11E (WMM2015 magnetic declination)
0.16 annual change
Runways:1
Longest:6660 × 148 ft (2030 × 45 m), paved

Time
Time Zone:UTC+1 (DST+2)
Local Time:

Weather
METAR:ENCN 131820Z 04005KT 360V060 0700 R03/1400 R21/1500 FZFG FEW022 M00/M00 Q0983

Related Locations
Nearby:
Farthest:CHT: 11416 mi / 18373 km
Waitangi [Tuuta], CIT, NZ

Find:

   beyond  
but within

Other Information
Maps:
NOTAMs:
Links:
Sources:

  
flag of Norway   

Sectional Chart

Flight Planning
at skyvector.com

Satellite Image

Google Maps Satellite view

 

Copyright © 2004-2017 Karl L. Swartz. All rights reserved.
The Great Circle Mapper name and logo are trademarks of the Great Circle Mapper.
All other trademarks mentioned herein belong to their respective owners.
Please see credits for attibutions and further copyright information.

  Follow gcmap on Facebook Follow gcmap on Twitter Follow gcmap on Google+ GCmap on LinkedIn

hCard Microformat

Geo Microformat